createdAt,value
2023-10-19T00:00:06.972Z,0.00
2023-10-19T00:01:06.973Z,0.00
2023-10-19T00:02:07.063Z,0.00
2023-10-19T00:03:06.968Z,0.00
2023-10-19T00:04:06.897Z,0.00
2023-10-19T00:05:06.833Z,0.00
2023-10-19T00:06:06.895Z,0.00
2023-10-19T00:07:06.776Z,0.00
2023-10-19T00:08:06.908Z,0.00
2023-10-19T00:09:06.732Z,0.00
2023-10-19T00:10:06.742Z,0.00
2023-10-19T00:11:06.686Z,0.00
2023-10-19T00:12:06.752Z,0.00
2023-10-19T00:13:06.634Z,0.00
2023-10-19T00:14:06.680Z,0.00
2023-10-19T00:15:06.591Z,0.00
2023-10-19T00:16:06.681Z,0.00
2023-10-19T00:17:06.562Z,0.00
2023-10-19T00:18:06.674Z,0.00
2023-10-19T00:19:06.479Z,0.00
2023-10-19T00:20:06.504Z,0.00
2023-10-19T00:21:06.458Z,0.00
2023-10-19T00:22:06.424Z,0.00
2023-10-19T00:23:06.384Z,0.00
2023-10-19T00:24:06.497Z,0.00
2023-10-19T00:25:06.339Z,0.00
2023-10-19T00:26:06.354Z,0.00
2023-10-19T00:27:06.294Z,0.00
2023-10-19T00:28:06.363Z,0.00
2023-10-19T00:29:06.232Z,0.00
2023-10-19T00:30:06.270Z,0.00
2023-10-19T00:31:06.211Z,0.00
2023-10-19T00:32:06.238Z,0.00
2023-10-19T00:33:06.164Z,0.00
2023-10-19T00:34:06.204Z,0.00
2023-10-19T00:35:06.107Z,0.00
2023-10-19T00:36:06.114Z,0.00
2023-10-19T00:37:06.046Z,0.00
2023-10-19T00:38:06.020Z,0.00
2023-10-19T00:39:05.983Z,0.00
2023-10-19T00:40:06.038Z,0.00
2023-10-19T00:41:05.933Z,0.00
2023-10-19T00:42:05.957Z,0.00
2023-10-19T00:43:05.887Z,0.00
2023-10-19T00:44:05.966Z,0.00
2023-10-19T00:45:06.058Z,0.00
2023-10-19T00:46:05.913Z,0.00
2023-10-19T00:47:05.811Z,0.00
2023-10-19T00:48:05.795Z,0.00
2023-10-19T00:49:05.740Z,0.00
2023-10-19T00:50:05.802Z,0.00
2023-10-19T00:51:05.717Z,0.00
2023-10-19T00:52:05.714Z,0.00
2023-10-19T00:53:05.644Z,0.00
2023-10-19T00:54:05.728Z,0.00
2023-10-19T00:55:05.618Z,0.00
2023-10-19T00:56:05.646Z,0.00
2023-10-19T00:57:05.561Z,0.00
2023-10-19T00:58:05.568Z,0.00
2023-10-19T00:59:05.495Z,0.00
2023-10-19T01:00:05.567Z,0.00
2023-10-19T01:01:05.479Z,0.00
2023-10-19T01:02:05.605Z,0.00
2023-10-19T01:03:05.448Z,0.00
2023-10-19T01:04:05.423Z,0.00
2023-10-19T01:05:05.356Z,0.00
2023-10-19T01:06:05.409Z,0.00
2023-10-19T01:07:05.310Z,0.00
2023-10-19T01:08:05.348Z,0.00
2023-10-19T01:09:05.274Z,0.00
2023-10-19T01:10:05.338Z,0.00
2023-10-19T01:11:05.225Z,0.00
2023-10-19T01:12:05.257Z,0.00
2023-10-19T01:13:05.150Z,0.00
2023-10-19T01:14:05.171Z,0.00
2023-10-19T01:15:05.115Z,0.00
2023-10-19T01:16:05.229Z,0.00
2023-10-19T01:17:05.113Z,0.00
2023-10-19T01:18:05.124Z,0.00
2023-10-19T01:19:05.006Z,0.00
2023-10-19T01:20:05.107Z,0.00
2023-10-19T01:21:04.955Z,0.00
2023-10-19T01:22:05.031Z,0.00
2023-10-19T01:23:04.919Z,0.00
2023-10-19T01:24:04.943Z,0.00
2023-10-19T01:25:04.881Z,0.00
2023-10-19T01:26:04.960Z,0.00
2023-10-19T01:27:04.812Z,0.00
2023-10-19T01:28:04.860Z,0.00
2023-10-19T01:29:04.764Z,0.00
2023-10-19T01:30:04.777Z,0.00
2023-10-19T01:31:04.732Z,0.00
2023-10-19T01:32:04.850Z,0.00
2023-10-19T01:33:04.712Z,0.00
2023-10-19T01:34:04.705Z,0.00
2023-10-19T01:35:04.629Z,0.00
2023-10-19T01:36:04.705Z,0.00
2023-10-19T01:37:04.584Z,0.00
2023-10-19T01:38:04.632Z,0.00
2023-10-19T01:39:04.524Z,0.00
2023-10-19T01:40:04.545Z,0.00
2023-10-19T01:41:04.481Z,0.00
2023-10-19T01:42:04.545Z,0.00
2023-10-19T01:43:04.445Z,0.00
2023-10-19T01:44:04.512Z,0.00
2023-10-19T01:45:04.386Z,0.00
2023-10-19T01:46:04.368Z,0.00
2023-10-19T01:47:04.395Z,0.00
2023-10-19T01:48:04.417Z,0.00
2023-10-19T01:49:04.279Z,0.00
2023-10-19T01:50:04.293Z,0.00
2023-10-19T01:51:04.250Z,0.00
2023-10-19T01:52:04.322Z,0.00
2023-10-19T01:53:04.183Z,0.00
2023-10-19T01:54:04.268Z,0.00
2023-10-19T01:55:04.144Z,0.00
2023-10-19T01:56:04.135Z,0.00
2023-10-19T01:57:04.129Z,0.00
2023-10-19T01:58:04.147Z,0.00
2023-10-19T01:59:04.036Z,0.00
2023-10-19T02:00:04.081Z,0.00
2023-10-19T02:01:04.016Z,0.00
2023-10-19T02:02:04.192Z,0.00
2023-10-19T02:03:04.117Z,0.00
2023-10-19T02:04:03.994Z,0.00
2023-10-19T02:05:03.901Z,0.00
2023-10-19T02:06:03.906Z,0.00
2023-10-19T02:07:03.845Z,0.00
2023-10-19T02:08:03.921Z,0.00
2023-10-19T02:09:03.817Z,0.00
2023-10-19T02:10:03.832Z,0.00
2023-10-19T02:11:03.770Z,0.00
2023-10-19T02:12:03.744Z,0.00
2023-10-19T02:13:03.704Z,0.00
2023-10-19T02:14:03.759Z,0.00
2023-10-19T02:15:03.672Z,0.00
2023-10-19T02:16:03.673Z,0.00
2023-10-19T02:17:03.763Z,0.00
2023-10-19T02:18:03.721Z,0.00
2023-10-19T02:19:03.570Z,0.00
2023-10-19T02:20:03.612Z,0.00
2023-10-19T02:21:03.540Z,0.00
2023-10-19T02:22:03.527Z,0.00
2023-10-19T02:23:03.467Z,0.00
2023-10-19T02:24:03.533Z,0.00
2023-10-19T02:25:03.462Z,0.00
2023-10-19T02:26:03.441Z,0.00
2023-10-19T02:27:03.385Z,0.00
2023-10-19T02:28:03.449Z,0.00
2023-10-19T02:29:03.336Z,0.00
2023-10-19T02:30:03.369Z,0.00
2023-10-19T02:31:03.291Z,0.00
2023-10-19T02:32:03.319Z,0.00
2023-10-19T02:33:03.261Z,0.00
2023-10-19T02:34:03.288Z,0.00
2023-10-19T02:35:03.222Z,0.00
2023-10-19T02:36:03.212Z,0.00
2023-10-19T02:37:03.230Z,0.00
2023-10-19T02:38:03.226Z,0.00
2023-10-19T02:39:03.094Z,0.00
2023-10-19T02:40:03.125Z,0.00
2023-10-19T02:41:03.037Z,0.00
2023-10-19T02:42:03.049Z,0.00
2023-10-19T02:43:02.995Z,0.00
2023-10-19T02:44:02.989Z,0.00
2023-10-19T02:45:02.954Z,0.00
2023-10-19T02:46:02.971Z,0.00
2023-10-19T02:47:02.984Z,0.00
2023-10-19T02:48:02.919Z,0.00
2023-10-19T02:49:02.864Z,0.00
2023-10-19T02:50:02.917Z,0.00
2023-10-19T02:51:02.916Z,0.00
2023-10-19T02:52:02.828Z,0.00
2023-10-19T02:53:02.763Z,0.00
2023-10-19T02:54:02.819Z,0.00
2023-10-19T02:55:02.718Z,0.00
2023-10-19T02:56:02.758Z,0.00
2023-10-19T02:57:02.672Z,0.00
2023-10-19T02:58:02.764Z,0.00
2023-10-19T02:59:02.636Z,0.00
2023-10-19T03:00:02.696Z,0.00
2023-10-19T03:01:02.655Z,0.00
2023-10-19T03:02:03.561Z,0.00
2023-10-19T03:03:02.652Z,0.00
2023-10-19T03:04:02.617Z,0.00
2023-10-19T03:05:02.592Z,0.00
2023-10-19T03:06:02.530Z,0.00
2023-10-19T03:07:02.452Z,0.00
2023-10-19T03:08:02.426Z,0.00
2023-10-19T03:09:02.400Z,0.00
2023-10-19T03:10:02.446Z,0.00
2023-10-19T03:11:02.354Z,0.00
2023-10-19T03:12:02.353Z,0.00
2023-10-19T03:13:02.311Z,0.00
2023-10-19T03:14:02.369Z,0.00
2023-10-19T03:15:02.260Z,0.00
2023-10-19T03:16:02.303Z,0.00
2023-10-19T03:17:02.465Z,0.00
2023-10-19T03:18:02.328Z,0.00
2023-10-19T03:19:02.193Z,0.00
2023-10-19T03:20:02.265Z,0.00
2023-10-19T03:21:02.230Z,0.00
2023-10-19T03:22:02.223Z,0.00
2023-10-19T03:23:02.100Z,0.00
2023-10-19T03:24:02.199Z,0.00
2023-10-19T03:25:02.025Z,0.00
2023-10-19T03:26:02.039Z,0.00
2023-10-19T03:27:01.973Z,0.00
2023-10-19T03:28:01.950Z,0.00
2023-10-19T03:29:01.917Z,0.00
2023-10-19T03:30:01.968Z,0.00
2023-10-19T03:31:01.911Z,0.00
2023-10-19T03:32:01.929Z,0.00
2023-10-19T03:33:01.912Z,0.00
2023-10-19T03:34:01.885Z,0.00
2023-10-19T03:35:01.877Z,0.00
2023-10-19T03:36:01.812Z,0.00
2023-10-19T03:37:01.714Z,0.00
2023-10-19T03:38:01.721Z,0.00
2023-10-19T03:39:01.666Z,0.00
2023-10-19T03:40:01.745Z,0.00
2023-10-19T03:41:01.631Z,0.00
2023-10-19T03:42:01.636Z,0.00
2023-10-19T03:43:01.582Z,0.00
2023-10-19T03:44:01.654Z,0.00
2023-10-19T03:45:01.550Z,0.00
2023-10-19T03:46:01.577Z,0.00
2023-10-19T03:47:01.583Z,0.00
2023-10-19T03:48:01.535Z,0.00
2023-10-19T03:49:01.442Z,0.00
2023-10-19T03:50:01.490Z,0.00
2023-10-19T03:51:01.389Z,0.00
2023-10-19T03:52:01.395Z,0.00
2023-10-19T03:53:01.398Z,0.00
2023-10-19T03:54:01.416Z,0.00
2023-10-19T03:55:01.308Z,0.00
2023-10-19T03:56:01.392Z,0.00
2023-10-19T03:57:01.261Z,0.00
2023-10-19T03:58:01.252Z,0.00
2023-10-19T03:59:01.224Z,0.00
2023-10-19T04:00:01.282Z,0.00
2023-10-19T04:01:01.170Z,0.00
2023-10-19T04:02:01.256Z,0.00
2023-10-19T04:03:01.181Z,0.00
2023-10-19T04:04:02.090Z,0.00
2023-10-19T04:05:01.115Z,0.00
2023-10-19T04:06:01.108Z,0.00
2023-10-19T04:07:01.023Z,0.00
2023-10-19T04:08:01.069Z,0.00
2023-10-19T04:09:00.993Z,0.00
2023-10-19T04:10:01.184Z,0.00
2023-10-19T04:11:00.936Z,0.00
2023-10-19T04:12:00.966Z,0.00
2023-10-19T04:13:00.996Z,0.00
2023-10-19T04:14:00.978Z,0.00
2023-10-19T04:15:00.836Z,0.00
2023-10-19T04:16:00.887Z,0.00
2023-10-19T04:17:00.862Z,0.00
2023-10-19T04:18:00.827Z,0.00
2023-10-19T04:19:00.743Z,0.00
2023-10-19T04:20:00.831Z,0.00
2023-10-19T04:21:00.710Z,0.00
2023-10-19T04:22:00.733Z,0.00
2023-10-19T04:23:00.694Z,0.00
2023-10-19T04:24:00.734Z,0.00
2023-10-19T04:25:00.600Z,0.00
2023-10-19T04:26:00.675Z,0.00
2023-10-19T04:27:00.575Z,0.00
2023-10-19T04:28:00.556Z,0.00
2023-10-19T04:29:00.554Z,0.00
2023-10-19T04:30:00.573Z,0.00
2023-10-19T04:31:00.505Z,0.00
2023-10-19T04:32:00.532Z,0.00
2023-10-19T04:33:00.488Z,0.00
2023-10-19T04:34:00.511Z,0.00
2023-10-19T04:35:00.450Z,0.00
2023-10-19T04:36:00.409Z,0.00
2023-10-19T04:37:00.330Z,0.00
2023-10-19T04:38:00.361Z,0.00
2023-10-19T04:39:00.296Z,0.00
2023-10-19T04:40:00.352Z,0.00
2023-10-19T04:41:00.281Z,0.00
2023-10-19T04:42:00.329Z,0.00
2023-10-19T04:43:00.190Z,0.00
2023-10-19T04:44:00.312Z,0.00
2023-10-19T04:45:00.188Z,0.00
2023-10-19T04:46:00.225Z,0.00
2023-10-19T04:47:00.213Z,0.00
2023-10-19T04:48:00.202Z,0.00
2023-10-19T04:49:00.046Z,0.00
2023-10-19T04:50:00.172Z,0.00
2023-10-19T04:51:00.011Z,0.00
2023-10-19T04:52:00.015Z,0.00
2023-10-19T04:53:00.026Z,0.00
2023-10-19T04:54:00.031Z,0.00
2023-10-19T04:54:59.908Z,0.00
2023-10-19T04:55:59.967Z,0.00
2023-10-19T04:56:59.860Z,0.00
2023-10-19T04:57:59.855Z,0.00
2023-10-19T04:58:59.858Z,0.00
2023-10-19T04:59:59.873Z,0.00
2023-10-19T05:00:59.794Z,0.00
2023-10-19T05:02:00.956Z,0.00
2023-10-19T05:02:59.830Z,0.00
2023-10-19T05:03:59.830Z,0.00
2023-10-19T05:04:59.690Z,0.00
2023-10-19T05:05:59.710Z,0.00
2023-10-19T05:06:59.628Z,0.00
2023-10-19T05:07:59.659Z,0.00
2023-10-19T05:08:59.572Z,0.00
2023-10-19T05:09:59.643Z,0.00
2023-10-19T05:10:59.559Z,0.00
2023-10-19T05:11:59.563Z,0.00
2023-10-19T05:12:59.486Z,0.00
2023-10-19T05:13:59.629Z,0.00
2023-10-19T05:14:59.454Z,0.00
2023-10-19T05:15:59.502Z,0.00
2023-10-19T05:16:59.529Z,0.00
2023-10-19T05:17:59.419Z,0.00
2023-10-19T05:18:59.350Z,0.00
2023-10-19T05:19:59.472Z,0.00
2023-10-19T05:20:59.294Z,0.00
2023-10-19T05:21:59.317Z,0.00
2023-10-19T05:22:59.319Z,0.00
2023-10-19T05:23:59.240Z,0.00
2023-10-19T05:24:59.207Z,0.00
2023-10-19T05:25:59.270Z,0.00
2023-10-19T05:26:59.155Z,0.00
2023-10-19T05:27:59.164Z,0.00
2023-10-19T05:28:59.135Z,0.00
2023-10-19T05:29:59.182Z,0.00
2023-10-19T05:30:59.067Z,0.00
2023-10-19T05:31:59.174Z,0.00
2023-10-19T05:32:59.171Z,0.00
2023-10-19T05:33:59.014Z,0.00
2023-10-19T05:35:00.884Z,0.00
2023-10-19T05:35:59.035Z,0.00
2023-10-19T05:36:58.925Z,0.00
2023-10-19T05:37:58.951Z,0.00
2023-10-19T05:38:58.893Z,0.00
2023-10-19T05:39:58.933Z,0.00
2023-10-19T05:40:58.878Z,0.00
2023-10-19T05:41:58.854Z,0.00
2023-10-19T05:42:58.792Z,0.00
2023-10-19T05:43:58.907Z,0.00
2023-10-19T05:44:58.724Z,0.00
2023-10-19T05:45:58.796Z,0.00
2023-10-19T05:46:58.761Z,0.00
2023-10-19T05:47:58.797Z,0.00
2023-10-19T05:48:58.645Z,0.00
2023-10-19T05:49:58.746Z,4.00
2023-10-19T05:50:58.595Z,4.00
2023-10-19T05:51:59.694Z,0.00
2023-10-19T05:52:58.577Z,4.00
2023-10-19T05:53:58.523Z,4.00
2023-10-19T05:54:58.499Z,4.00
2023-10-19T05:55:58.563Z,4.00
2023-10-19T05:56:58.451Z,4.00
2023-10-19T05:57:58.490Z,8.00
2023-10-19T05:58:58.431Z,8.00
2023-10-19T05:59:58.471Z,8.00
2023-10-19T06:00:58.361Z,12.00
2023-10-19T06:01:58.510Z,8.00
2023-10-19T06:02:58.473Z,12.00
2023-10-19T06:03:58.330Z,12.00
2023-10-19T06:04:58.470Z,16.00
2023-10-19T06:05:58.312Z,16.00
2023-10-19T06:06:58.220Z,16.00
2023-10-19T06:07:58.280Z,16.00
2023-10-19T06:08:58.176Z,16.00
2023-10-19T06:09:58.235Z,20.00
2023-10-19T06:10:58.198Z,24.00
2023-10-19T06:11:58.166Z,24.00
2023-10-19T06:12:58.077Z,28.00
2023-10-19T06:13:58.236Z,28.00
2023-10-19T06:14:58.016Z,32.00
2023-10-19T06:15:58.178Z,36.00
2023-10-19T06:16:58.029Z,40.00
2023-10-19T06:17:58.079Z,44.00
2023-10-19T06:18:57.997Z,48.00
2023-10-19T06:19:58.123Z,56.00
2023-10-19T06:20:57.882Z,60.00
2023-10-19T06:21:57.916Z,64.00
2023-10-19T06:22:57.908Z,64.00
2023-10-19T06:23:57.823Z,56.00
2023-10-19T06:24:57.794Z,56.00
2023-10-19T06:25:57.862Z,56.00
2023-10-19T06:26:57.752Z,56.00
2023-10-19T06:27:57.749Z,64.00
2023-10-19T06:28:57.766Z,64.00
2023-10-19T06:29:57.763Z,64.00
2023-10-19T06:30:57.652Z,64.00
2023-10-19T06:31:57.768Z,60.00
2023-10-19T06:32:57.754Z,64.00
2023-10-19T06:33:57.592Z,76.00
2023-10-19T06:34:57.597Z,84.00
2023-10-19T06:35:57.602Z,88.00
2023-10-19T06:36:57.587Z,92.00
2023-10-19T06:37:57.584Z,96.00
2023-10-19T06:38:57.463Z,96.00
2023-10-19T06:39:57.530Z,96.00
2023-10-19T06:40:57.460Z,96.00
2023-10-19T06:41:57.442Z,96.00
2023-10-19T06:42:57.367Z,96.00
2023-10-19T06:43:57.374Z,96.00
2023-10-19T06:44:57.346Z,100.00
2023-10-19T06:45:57.396Z,108.00
2023-10-19T06:46:57.332Z,116.00
2023-10-19T06:47:57.356Z,116.00
2023-10-19T06:48:57.243Z,116.00
2023-10-19T06:49:57.357Z,112.00
2023-10-19T06:50:57.179Z,112.00
2023-10-19T06:51:57.208Z,112.00
2023-10-19T06:52:57.179Z,112.00
2023-10-19T06:53:57.132Z,116.00
2023-10-19T06:54:57.089Z,116.00
2023-10-19T06:55:57.129Z,112.00
2023-10-19T06:56:57.043Z,120.00
2023-10-19T06:57:57.022Z,128.00
2023-10-19T06:58:57.074Z,140.00
2023-10-19T06:59:56.979Z,152.00
2023-10-19T07:00:56.955Z,168.00
2023-10-19T07:01:57.043Z,176.00
2023-10-19T07:02:56.945Z,176.00
2023-10-19T07:03:56.893Z,184.00
2023-10-19T07:04:56.874Z,180.00
2023-10-19T07:05:56.825Z,180.00
2023-10-19T07:06:56.812Z,176.00
2023-10-19T07:07:56.822Z,180.00
2023-10-19T07:08:56.767Z,196.00
2023-10-19T07:09:57.729Z,208.00
2023-10-19T07:10:56.749Z,216.00
2023-10-19T07:11:56.688Z,216.00
2023-10-19T07:12:56.664Z,212.00
2023-10-19T07:13:56.696Z,196.00
2023-10-19T07:14:56.625Z,180.00
2023-10-19T07:15:56.603Z,172.00
2023-10-19T07:16:56.616Z,168.00
2023-10-19T07:17:56.614Z,172.00
2023-10-19T07:18:56.529Z,176.00
2023-10-19T07:19:56.521Z,188.00
2023-10-19T07:20:56.500Z,204.00
2023-10-19T07:21:56.453Z,232.00
2023-10-19T07:22:56.495Z,256.00
2023-10-19T07:23:56.414Z,268.00
2023-10-19T07:24:56.396Z,276.00
2023-10-19T07:25:56.385Z,280.00
2023-10-19T07:26:56.339Z,292.00
2023-10-19T07:27:56.356Z,292.00
2023-10-19T07:28:56.341Z,284.00
2023-10-19T07:29:56.274Z,280.00
2023-10-19T07:30:56.242Z,280.00
2023-10-19T07:31:56.308Z,280.00
2023-10-19T07:32:56.216Z,292.00
2023-10-19T07:33:56.176Z,320.00
2023-10-19T07:34:56.185Z,360.00
2023-10-19T07:35:56.224Z,388.00
2023-10-19T07:36:56.110Z,412.00
2023-10-19T07:37:56.122Z,416.00
2023-10-19T07:38:56.068Z,404.00
2023-10-19T07:39:56.037Z,396.00
2023-10-19T07:40:56.160Z,396.00
2023-10-19T07:41:56.990Z,416.00
2023-10-19T07:42:55.977Z,444.00
2023-10-19T07:43:55.994Z,464.00
2023-10-19T07:44:55.926Z,484.00
2023-10-19T07:45:56.016Z,512.00
2023-10-19T07:46:55.883Z,552.00
2023-10-19T07:47:55.958Z,600.00
2023-10-19T07:48:55.827Z,664.00
2023-10-19T07:49:55.860Z,700.00
2023-10-19T07:50:55.813Z,740.00
2023-10-19T07:51:57.801Z,840.00
2023-10-19T07:52:55.830Z,820.00
2023-10-19T07:53:55.723Z,716.00
2023-10-19T07:54:55.695Z,672.00
2023-10-19T07:55:55.747Z,680.00
2023-10-19T07:56:55.655Z,708.00
2023-10-19T07:57:55.627Z,724.00
2023-10-19T07:58:55.659Z,724.00
2023-10-19T07:59:55.582Z,712.00
2023-10-19T08:00:55.629Z,712.00
2023-10-19T08:01:55.681Z,704.00
2023-10-19T08:02:55.592Z,696.00
2023-10-19T08:03:55.593Z,684.00
2023-10-19T08:04:55.497Z,632.00
2023-10-19T08:05:55.448Z,584.00
2023-10-19T08:06:55.425Z,580.00
2023-10-19T08:07:55.480Z,592.00
2023-10-19T08:08:55.373Z,612.00
2023-10-19T08:09:55.364Z,632.00
2023-10-19T08:10:55.412Z,648.00
2023-10-19T08:11:55.314Z,664.00
2023-10-19T08:12:55.289Z,688.00
2023-10-19T08:13:55.289Z,692.00
2023-10-19T08:14:55.246Z,684.00
2023-10-19T08:15:55.229Z,680.00
2023-10-19T08:16:55.265Z,696.00
2023-10-19T08:17:55.273Z,716.00
2023-10-19T08:18:56.983Z,740.00
2023-10-19T08:19:55.154Z,760.00
2023-10-19T08:20:55.092Z,856.00
2023-10-19T08:21:55.089Z,1012.00
2023-10-19T08:22:55.118Z,1196.00
2023-10-19T08:23:55.092Z,1328.00
2023-10-19T08:24:54.998Z,1360.00
2023-10-19T08:25:57.374Z,1312.00
2023-10-19T08:26:54.960Z,1200.00
2023-10-19T08:27:55.015Z,1104.00
2023-10-19T08:28:54.964Z,1108.00
2023-10-19T08:29:54.941Z,1212.00
2023-10-19T08:30:54.900Z,1380.00
2023-10-19T08:31:55.072Z,1572.00
2023-10-19T08:32:54.847Z,1668.00
2023-10-19T08:33:54.856Z,1636.00
2023-10-19T08:34:54.801Z,1692.00
2023-10-19T08:35:54.793Z,1828.00
2023-10-19T08:36:54.725Z,2120.00
2023-10-19T08:37:54.844Z,2496.00
2023-10-19T08:38:54.677Z,2816.00
2023-10-19T08:39:54.689Z,2988.00
2023-10-19T08:40:54.731Z,3072.00
2023-10-19T08:41:54.709Z,3084.00
2023-10-19T08:42:54.593Z,2876.00
2023-10-19T08:43:54.681Z,2716.00
2023-10-19T08:44:54.558Z,2552.00
2023-10-19T08:45:54.710Z,2468.00
2023-10-19T08:46:56.313Z,2148.00
2023-10-19T08:47:54.586Z,2088.00
2023-10-19T08:48:54.461Z,2108.00
2023-10-19T08:49:54.457Z,2240.00
2023-10-19T08:50:54.436Z,2340.00
2023-10-19T08:51:54.476Z,2488.00
2023-10-19T08:52:54.380Z,2496.00
2023-10-19T08:53:54.379Z,2500.00
2023-10-19T08:54:54.329Z,2516.00
2023-10-19T08:55:54.424Z,2572.00
2023-10-19T08:56:54.288Z,2648.00
2023-10-19T08:57:54.320Z,2688.00
2023-10-19T08:58:54.278Z,2712.00
2023-10-19T08:59:54.315Z,2724.00
2023-10-19T09:00:54.214Z,2772.00
2023-10-19T09:01:54.312Z,2876.00
2023-10-19T09:02:54.179Z,2988.00
2023-10-19T09:03:54.171Z,3020.00
2023-10-19T09:04:54.147Z,2992.00
2023-10-19T09:05:54.148Z,2944.00
2023-10-19T09:06:54.065Z,2784.00
2023-10-19T09:07:54.106Z,2848.00
2023-10-19T09:08:54.056Z,2940.00
2023-10-19T09:09:54.198Z,3172.00
2023-10-19T09:10:54.022Z,3472.00
2023-10-19T09:11:54.089Z,3548.00
2023-10-19T09:12:53.949Z,3620.00
2023-10-19T09:13:54.139Z,3672.00
2023-10-19T09:14:53.911Z,3720.00
2023-10-19T09:15:54.083Z,3800.00
2023-10-19T09:16:53.889Z,3892.00
2023-10-19T09:17:54.080Z,3912.00
2023-10-19T09:18:53.848Z,3960.00
2023-10-19T09:19:54.008Z,4016.00
2023-10-19T09:20:54.280Z,4000.00
2023-10-19T09:21:53.952Z,4052.00
2023-10-19T09:22:53.798Z,4096.00
2023-10-19T09:23:53.869Z,4156.00
2023-10-19T09:24:53.732Z,4208.00
2023-10-19T09:25:54.153Z,4524.00
2023-10-19T09:26:53.726Z,4872.00
2023-10-19T09:27:53.785Z,5272.00
2023-10-19T09:28:53.743Z,5324.00
2023-10-19T09:29:53.833Z,5244.00
2023-10-19T09:30:53.784Z,5048.00
2023-10-19T09:31:53.885Z,4712.00
2023-10-19T09:32:53.693Z,4332.00
2023-10-19T09:33:53.741Z,4372.00
2023-10-19T09:34:53.655Z,3604.00
2023-10-19T09:35:53.821Z,3572.00
2023-10-19T09:36:53.590Z,3516.00
2023-10-19T09:37:53.688Z,3532.00
2023-10-19T09:38:53.557Z,3656.00
2023-10-19T09:39:53.694Z,4168.00
2023-10-19T09:40:53.549Z,4252.00
2023-10-19T09:41:53.681Z,4256.00
2023-10-19T09:42:53.537Z,4208.00
2023-10-19T09:43:53.636Z,4584.00
2023-10-19T09:44:53.503Z,5248.00
2023-10-19T09:45:53.602Z,5628.00
2023-10-19T09:46:53.531Z,5884.00
2023-10-19T09:47:53.674Z,5912.00
2023-10-19T09:48:53.492Z,5952.00
2023-10-19T09:49:53.578Z,6192.00
2023-10-19T09:50:53.424Z,5796.00
2023-10-19T09:52:06.619Z,5920.00
2023-10-19T09:52:53.426Z,5920.00
2023-10-19T09:53:53.586Z,5736.00
2023-10-19T09:54:53.365Z,5592.00
2023-10-19T09:55:53.526Z,5724.00
2023-10-19T09:56:55.009Z,5664.00
2023-10-19T09:57:53.503Z,5704.00
2023-10-19T09:58:53.435Z,5844.00
2023-10-19T09:59:53.449Z,6048.00
2023-10-19T10:00:53.373Z,6048.00
2023-10-19T10:01:53.444Z,6084.00
2023-10-19T10:02:53.397Z,5880.00
2023-10-19T10:03:53.494Z,5808.00
2023-10-19T10:04:53.336Z,5840.00
2023-10-19T10:05:53.301Z,5660.00
2023-10-19T10:06:53.283Z,5368.00
2023-10-19T10:07:53.361Z,4892.00
2023-10-19T10:08:53.264Z,4340.00
2023-10-19T10:09:53.342Z,3900.00
2023-10-19T10:10:53.268Z,3596.00
2023-10-19T10:11:53.268Z,3404.00
2023-10-19T10:12:53.224Z,3336.00
2023-10-19T10:13:53.440Z,3380.00
2023-10-19T10:14:53.305Z,3540.00
2023-10-19T10:15:53.283Z,3508.00
2023-10-19T10:16:53.263Z,3408.00
2023-10-19T10:17:53.368Z,3072.00
2023-10-19T10:18:53.178Z,3108.00
2023-10-19T10:19:53.259Z,3032.00
2023-10-19T10:20:53.132Z,3016.00
2023-10-19T10:21:53.242Z,3056.00
2023-10-19T10:22:53.163Z,3204.00
2023-10-19T10:23:53.148Z,3324.00
2023-10-19T10:24:53.108Z,3452.00
2023-10-19T10:25:53.202Z,3616.00
2023-10-19T10:26:53.065Z,3688.00
2023-10-19T10:27:53.095Z,3868.00
2023-10-19T10:28:54.823Z,4112.00
2023-10-19T10:29:53.114Z,4396.00
2023-10-19T10:30:53.030Z,4628.00
2023-10-19T10:31:53.117Z,4960.00
2023-10-19T10:32:53.033Z,5252.00
2023-10-19T10:33:53.002Z,5424.00
2023-10-19T10:34:52.964Z,6376.00
2023-10-19T10:35:53.074Z,7616.00
2023-10-19T10:36:52.992Z,7688.00
2023-10-19T10:37:53.005Z,7980.00
2023-10-19T10:38:52.891Z,7888.00
2023-10-19T10:39:52.907Z,7524.00
2023-10-19T10:40:52.884Z,7656.00
2023-10-19T10:41:52.924Z,7472.00
2023-10-19T10:42:52.833Z,7732.00
2023-10-19T10:43:54.094Z,7836.00
2023-10-19T10:44:52.817Z,8068.00
2023-10-19T10:45:52.939Z,8504.00
2023-10-19T10:46:52.904Z,8752.00
2023-10-19T10:47:52.889Z,8648.00
2023-10-19T10:48:52.844Z,8420.00
2023-10-19T10:49:52.923Z,8464.00
2023-10-19T10:50:52.769Z,7464.00
2023-10-19T10:51:52.785Z,7832.00
2023-10-19T10:52:52.770Z,7156.00
2023-10-19T10:53:52.804Z,6500.00
2023-10-19T10:54:52.680Z,6340.00
2023-10-19T10:55:52.956Z,7104.00
2023-10-19T10:56:52.650Z,7952.00
2023-10-19T10:57:53.127Z,7980.00
2023-10-19T10:58:52.683Z,7896.00
2023-10-19T10:59:52.769Z,7532.00
2023-10-19T11:00:52.951Z,5556.00
2023-10-19T11:01:52.747Z,4412.00
2023-10-19T11:02:52.609Z,5884.00
2023-10-19T11:03:53.304Z,4272.00
2023-10-19T11:04:52.627Z,4448.00
2023-10-19T11:05:52.794Z,4764.00
2023-10-19T11:06:52.559Z,4896.00
2023-10-19T11:07:52.639Z,4844.00
2023-10-19T11:08:52.540Z,4800.00
2023-10-19T11:09:53.292Z,4864.00
2023-10-19T11:10:52.538Z,4708.00
2023-10-19T11:11:53.826Z,4260.00
2023-10-19T11:12:52.493Z,3880.00
2023-10-19T11:13:52.571Z,3148.00
2023-10-19T11:14:52.499Z,2740.00
2023-10-19T11:15:53.018Z,2656.00
2023-10-19T11:16:52.457Z,2708.00
2023-10-19T11:17:52.486Z,2772.00
2023-10-19T11:18:52.439Z,2704.00
2023-10-19T11:19:52.534Z,2720.00
2023-10-19T11:20:52.382Z,2776.00
2023-10-19T11:21:52.718Z,2880.00
2023-10-19T11:22:52.475Z,2972.00
2023-10-19T11:23:52.415Z,3052.00
2023-10-19T11:24:52.357Z,3144.00
2023-10-19T11:25:52.558Z,3212.00
2023-10-19T11:26:52.341Z,3284.00
2023-10-19T11:27:52.363Z,3292.00
2023-10-19T11:28:52.401Z,3388.00
2023-10-19T11:29:52.418Z,3408.00
2023-10-19T11:30:52.316Z,3136.00
2023-10-19T11:31:52.296Z,2800.00
2023-10-19T11:32:52.328Z,2444.00
2023-10-19T11:33:52.312Z,2152.00
2023-10-19T11:34:52.216Z,1996.00
2023-10-19T11:35:52.303Z,1920.00
2023-10-19T11:36:52.178Z,1868.00
2023-10-19T11:37:52.248Z,1796.00
2023-10-19T11:38:52.141Z,1676.00
2023-10-19T11:39:52.237Z,1544.00
2023-10-19T11:40:52.214Z,1460.00
2023-10-19T11:41:52.145Z,1424.00
2023-10-19T11:42:52.079Z,1396.00
2023-10-19T11:43:52.176Z,1352.00
2023-10-19T11:44:52.046Z,1288.00
2023-10-19T11:45:52.050Z,1220.00
2023-10-19T11:46:52.082Z,1168.00
2023-10-19T11:47:52.127Z,1132.00
2023-10-19T11:48:51.980Z,1092.00
2023-10-19T11:49:52.086Z,1048.00
2023-10-19T11:50:51.955Z,1020.00
2023-10-19T11:51:52.009Z,1004.00
2023-10-19T11:52:51.962Z,1032.00
2023-10-19T11:53:52.005Z,1104.00
2023-10-19T11:54:51.885Z,1188.00
2023-10-19T11:55:51.972Z,1208.00
2023-10-19T11:56:51.852Z,1248.00
2023-10-19T11:57:51.929Z,1288.00
2023-10-19T11:58:51.841Z,1296.00
2023-10-19T11:59:51.839Z,1280.00
2023-10-19T12:00:51.770Z,1284.00
2023-10-19T12:01:51.908Z,1300.00
2023-10-19T12:02:51.972Z,1316.00
2023-10-19T12:03:51.860Z,1308.00
2023-10-19T12:04:51.794Z,1312.00
2023-10-19T12:05:51.779Z,1276.00
2023-10-19T12:06:51.668Z,1240.00
2023-10-19T12:07:51.717Z,1200.00
2023-10-19T12:08:51.686Z,1156.00
2023-10-19T12:09:51.710Z,1116.00
2023-10-19T12:10:51.623Z,1072.00
2023-10-19T12:11:51.614Z,1032.00
2023-10-19T12:13:01.365Z,1000.00
2023-10-19T12:13:51.689Z,964.00
2023-10-19T12:14:51.541Z,916.00
2023-10-19T12:15:51.541Z,860.00
2023-10-19T12:16:51.578Z,812.00
2023-10-19T12:17:51.602Z,800.00
2023-10-19T12:18:51.474Z,804.00
2023-10-19T12:19:51.477Z,812.00
2023-10-19T12:20:51.432Z,836.00
2023-10-19T12:21:51.488Z,852.00
2023-10-19T12:22:51.431Z,868.00
2023-10-19T12:23:51.396Z,864.00
2023-10-19T12:24:51.360Z,840.00
2023-10-19T12:25:57.560Z,804.00
2023-10-19T12:26:51.338Z,764.00
2023-10-19T12:27:51.332Z,732.00
2023-10-19T12:28:51.323Z,696.00
2023-10-19T12:29:51.337Z,668.00
2023-10-19T12:30:51.299Z,656.00
2023-10-19T12:31:51.373Z,652.00
2023-10-19T12:32:51.290Z,644.00
2023-10-19T12:33:51.259Z,640.00
2023-10-19T12:34:51.175Z,640.00
2023-10-19T12:35:51.269Z,680.00
2023-10-19T12:36:51.139Z,676.00
2023-10-19T12:37:51.274Z,668.00
2023-10-19T12:38:51.123Z,652.00
2023-10-19T12:39:51.085Z,636.00
2023-10-19T12:40:51.118Z,620.00
2023-10-19T12:41:51.100Z,608.00
2023-10-19T12:42:51.028Z,596.00
2023-10-19T12:43:51.048Z,596.00
2023-10-19T12:44:50.988Z,608.00